createdAt,value
2023-02-02T00:01:54.662Z,1.17
2023-02-02T00:04:34.724Z,0.95
2023-02-02T00:07:07.761Z,1.13
2023-02-02T00:09:40.300Z,0.50
2023-02-02T00:12:13.163Z,0.50
2023-02-02T00:14:45.713Z,0.60
2023-02-02T00:17:18.516Z,1.25
2023-02-02T00:19:51.093Z,0.63
2023-02-02T00:22:23.983Z,1.67
2023-02-02T00:24:56.433Z,1.33
2023-02-02T00:27:29.319Z,0.88
2023-02-02T00:30:01.837Z,1.23
2023-02-02T00:32:34.769Z,0.57
2023-02-02T00:35:08.009Z,1.48
2023-02-02T00:37:40.809Z,1.70
2023-02-02T00:40:13.437Z,1.48
2023-02-02T00:42:50.676Z,0.88
2023-02-02T00:45:26.406Z,1.00
2023-02-02T00:47:59.375Z,1.77
2023-02-02T00:50:32.041Z,1.75
2023-02-02T00:53:04.973Z,1.38
2023-02-02T00:55:37.435Z,1.00
2023-02-02T00:58:10.263Z,0.88
2023-02-02T01:00:42.857Z,1.67
2023-02-02T01:03:16.543Z,1.05
2023-02-02T01:05:50.521Z,1.05
2023-02-02T01:08:23.500Z,0.98
2023-02-02T01:10:59.485Z,0.98
2023-02-02T01:13:32.453Z,1.10
2023-02-02T01:16:05.429Z,1.13
2023-02-02T01:18:38.415Z,1.13
2023-02-02T01:21:11.782Z,1.10
2023-02-02T01:23:44.889Z,2.10
2023-02-02T01:26:17.663Z,1.15
2023-02-02T01:28:50.672Z,1.70
2023-02-02T01:31:23.601Z,1.23
2023-02-02T01:33:56.604Z,0.90
2023-02-02T01:36:29.446Z,0.88
2023-02-02T01:39:02.485Z,1.10
2023-02-02T01:41:35.273Z,1.48
2023-02-02T01:44:28.051Z,1.13
2023-02-02T01:47:00.547Z,0.93
2023-02-02T01:49:35.225Z,0.98
2023-02-02T01:52:08.187Z,0.88
2023-02-02T01:54:43.331Z,0.70
2023-02-02T01:57:18.887Z,1.38
2023-02-02T01:59:53.606Z,1.67
2023-02-02T02:02:26.546Z,1.73
2023-02-02T02:05:01.707Z,1.15
2023-02-02T02:07:34.408Z,0.98
2023-02-02T02:10:12.971Z,1.48
2023-02-02T02:12:46.487Z,1.50
2023-02-02T02:15:39.138Z,1.08
2023-02-02T02:18:21.949Z,1.13
2023-02-02T02:21:34.636Z,1.23
2023-02-02T02:24:49.191Z,1.42
2023-02-02T02:27:25.250Z,1.60
2023-02-02T02:30:04.598Z,2.03
2023-02-02T02:32:43.730Z,1.05
2023-02-02T02:35:40.502Z,1.08
2023-02-02T02:38:22.610Z,2.20
2023-02-02T02:40:57.719Z,0.95
2023-02-02T02:43:49.257Z,1.50
2023-02-02T02:46:22.414Z,0.93
2023-02-02T02:48:58.260Z,1.17
2023-02-02T02:51:46.294Z,0.85
2023-02-02T02:54:42.064Z,1.17
2023-02-02T02:57:22.920Z,1.00
2023-02-02T03:00:02.541Z,1.13
2023-02-02T03:02:54.480Z,1.67
2023-02-02T03:06:08.446Z,1.57
2023-02-02T03:08:47.013Z,1.58
2023-02-02T03:11:20.352Z,1.65
2023-02-02T03:13:58.570Z,0.85
2023-02-02T03:16:34.805Z,1.27
2023-02-02T03:19:11.851Z,1.27
2023-02-02T03:21:44.768Z,1.00
2023-02-02T03:24:17.301Z,1.05
2023-02-02T03:26:50.533Z,1.25
2023-02-02T03:29:23.722Z,1.10
2023-02-02T03:31:56.662Z,1.08
2023-02-02T03:34:29.318Z,1.75
2023-02-02T03:37:02.269Z,1.25
2023-02-02T03:39:38.741Z,1.33
2023-02-02T03:42:12.766Z,0.80
2023-02-02T03:44:45.301Z,1.08
2023-02-02T03:47:18.158Z,0.68
2023-02-02T03:49:50.715Z,1.17
2023-02-02T03:52:23.916Z,0.95
2023-02-02T03:54:56.531Z,0.90
2023-02-02T03:57:32.634Z,0.65
2023-02-02T04:00:07.216Z,2.35
2023-02-02T04:02:44.930Z,1.17
2023-02-02T04:05:17.598Z,1.17
2023-02-02T04:07:50.637Z,0.90
2023-02-02T04:10:23.315Z,1.67
2023-02-02T04:12:58.992Z,1.77
2023-02-02T04:15:31.866Z,3.08
2023-02-02T04:18:05.326Z,6.50
2023-02-02T04:20:37.835Z,5.53
2023-02-02T04:23:10.751Z,6.75
2023-02-02T04:25:49.454Z,3.63
2023-02-02T04:28:26.621Z,5.88
2023-02-02T04:31:00.416Z,4.18
2023-02-02T04:33:34.607Z,2.88
2023-02-02T04:36:07.380Z,2.50
2023-02-02T04:38:40.261Z,1.38
2023-02-02T04:41:14.953Z,5.18
2023-02-02T04:43:48.340Z,5.40
2023-02-02T04:46:20.863Z,2.75
2023-02-02T04:48:53.712Z,1.70
2023-02-02T04:51:26.248Z,2.95
2023-02-02T04:53:59.313Z,10.07
2023-02-02T04:56:31.926Z,7.90
2023-02-02T04:59:12.141Z,7.65
2023-02-02T05:01:49.957Z,6.50
2023-02-02T05:04:23.037Z,4.07
2023-02-02T05:06:55.648Z,5.45
2023-02-02T05:09:28.632Z,4.90
2023-02-02T05:12:01.179Z,2.88
2023-02-02T05:14:34.159Z,2.00
2023-02-02T05:17:06.661Z,2.13
2023-02-02T05:19:39.599Z,2.47
2023-02-02T05:22:13.376Z,2.10
2023-02-02T05:24:51.158Z,3.08
2023-02-02T05:27:23.693Z,2.45
2023-02-02T05:29:56.608Z,4.22
2023-02-02T05:32:30.167Z,9.98
2023-02-02T05:35:03.100Z,7.90
2023-02-02T05:37:35.664Z,12.00
2023-02-02T05:40:09.510Z,9.98
2023-02-02T05:42:42.056Z,5.32
2023-02-02T05:45:14.972Z,6.55
2023-02-02T05:47:47.510Z,3.60
2023-02-02T05:50:20.439Z,3.25
2023-02-02T05:52:52.941Z,2.85
2023-02-02T05:55:26.194Z,4.53
2023-02-02T05:57:59.144Z,4.72
2023-02-02T06:00:33.026Z,6.90
2023-02-02T06:03:06.614Z,3.70
2023-02-02T06:05:39.767Z,4.03
2023-02-02T06:08:12.328Z,3.33
2023-02-02T06:10:45.222Z,3.42
2023-02-02T06:13:18.245Z,2.28
2023-02-02T06:15:57.175Z,3.47
2023-02-02T06:18:30.124Z,3.97
2023-02-02T06:21:03.831Z,2.97
2023-02-02T06:23:36.545Z,3.10
2023-02-02T06:26:09.676Z,2.17
2023-02-02T06:28:42.995Z,2.08
2023-02-02T06:31:19.631Z,1.40
2023-02-02T06:33:56.787Z,2.50
2023-02-02T06:36:29.701Z,2.20
2023-02-02T06:39:05.084Z,2.13
2023-02-02T06:41:38.143Z,2.08
2023-02-02T06:44:11.839Z,2.92
2023-02-02T06:46:48.703Z,1.42
2023-02-02T06:49:25.666Z,1.92
2023-02-02T06:51:58.495Z,2.30
2023-02-02T06:54:31.106Z,1.58
2023-02-02T06:57:04.045Z,1.80
2023-02-02T06:59:36.976Z,1.70
2023-02-02T07:02:11.230Z,2.00
2023-02-02T07:04:43.775Z,1.30
2023-02-02T07:07:16.795Z,0.98
2023-02-02T07:09:58.143Z,1.45
2023-02-02T07:12:31.430Z,0.88
2023-02-02T07:15:06.079Z,1.17
2023-02-02T07:17:39.006Z,1.10
2023-02-02T07:20:11.810Z,1.88
2023-02-02T07:22:44.751Z,2.60
2023-02-02T07:25:17.399Z,6.70
2023-02-02T07:27:56.285Z,1.15
2023-02-02T07:30:30.077Z,2.63
2023-02-02T07:33:02.964Z,2.83
2023-02-02T07:35:35.691Z,2.10
2023-02-02T07:38:08.793Z,1.92
2023-02-02T07:40:41.386Z,1.60
2023-02-02T07:43:14.234Z,1.15
2023-02-02T07:45:46.786Z,1.33
2023-02-02T07:48:19.729Z,0.75
2023-02-02T07:50:52.640Z,0.93
2023-02-02T07:53:25.541Z,0.73
2023-02-02T07:56:11.822Z,1.13
2023-02-02T07:58:45.008Z,1.50
2023-02-02T08:01:17.623Z,0.88
2023-02-02T08:03:50.958Z,1.13
2023-02-02T08:06:24.859Z,0.73
2023-02-02T08:08:58.217Z,0.80
2023-02-02T08:11:31.156Z,3.08
2023-02-02T08:14:04.371Z,1.00
2023-02-02T08:16:36.960Z,1.25
2023-02-02T08:19:10.737Z,0.90
2023-02-02T08:21:43.341Z,1.35
2023-02-02T08:24:16.208Z,0.93
2023-02-02T08:26:48.700Z,1.40
2023-02-02T08:29:21.644Z,2.03
2023-02-02T08:31:54.876Z,0.85
2023-02-02T08:34:28.244Z,1.10
2023-02-02T08:37:00.839Z,0.70
2023-02-02T08:39:33.689Z,0.93
2023-02-02T08:42:06.372Z,1.02
2023-02-02T08:44:42.127Z,0.88
2023-02-02T08:47:31.980Z,1.00
2023-02-02T08:50:05.438Z,1.10
2023-02-02T08:52:38.332Z,1.20
2023-02-02T08:55:11.194Z,1.30
2023-02-02T08:57:43.735Z,2.05
2023-02-02T09:00:16.915Z,1.40
2023-02-02T09:02:52.406Z,1.38
2023-02-02T09:05:25.704Z,1.20
2023-02-02T09:07:58.369Z,2.08
2023-02-02T09:10:32.475Z,1.92
2023-02-02T09:13:05.212Z,2.42
2023-02-02T09:15:39.128Z,1.80
2023-02-02T09:18:11.703Z,1.45
2023-02-02T09:20:44.666Z,1.58
2023-02-02T09:23:17.138Z,1.40
2023-02-02T09:25:50.347Z,1.13
2023-02-02T09:28:22.762Z,1.40
2023-02-02T09:30:55.749Z,1.67
2023-02-02T09:33:28.250Z,1.25
2023-02-02T09:36:08.065Z,2.50
2023-02-02T09:38:40.685Z,0.98
2023-02-02T09:41:26.024Z,0.93
2023-02-02T09:44:04.309Z,1.30
2023-02-02T09:47:04.669Z,1.23
2023-02-02T09:49:39.802Z,1.02
2023-02-02T09:52:14.900Z,1.30
2023-02-02T09:54:48.821Z,0.82
2023-02-02T09:57:24.157Z,0.93
2023-02-02T09:59:56.945Z,0.40
2023-02-02T10:02:50.280Z,0.95
2023-02-02T10:05:25.157Z,0.77
2023-02-02T10:08:01.010Z,1.10
2023-02-02T10:10:40.451Z,1.08
2023-02-02T10:13:22.977Z,1.27
2023-02-02T10:15:55.664Z,2.25
2023-02-02T10:18:47.275Z,1.50
2023-02-02T10:21:32.173Z,0.73
2023-02-02T10:24:05.152Z,1.30
2023-02-02T10:26:39.206Z,1.10
2023-02-02T10:29:19.525Z,1.10
2023-02-02T10:32:04.516Z,1.05
2023-02-02T10:34:45.184Z,1.20
2023-02-02T10:37:24.130Z,1.08
2023-02-02T10:40:03.086Z,0.80
2023-02-02T10:42:35.547Z,1.17
2023-02-02T10:45:16.226Z,0.77
2023-02-02T10:47:48.773Z,0.90
2023-02-02T10:50:22.309Z,0.90
2023-02-02T10:52:57.233Z,0.70
2023-02-02T10:55:33.242Z,0.60
2023-02-02T10:58:11.774Z,0.88
2023-02-02T11:00:51.631Z,0.80
2023-02-02T11:03:31.448Z,0.65
2023-02-02T11:06:34.590Z,0.98
2023-02-02T11:09:12.750Z,0.80
2023-02-02T11:11:47.239Z,0.75
2023-02-02T11:14:45.509Z,0.98
2023-02-02T11:17:23.204Z,0.90
2023-02-02T11:19:58.724Z,1.25
2023-02-02T11:22:34.431Z,1.27
2023-02-02T11:25:08.519Z,0.60
2023-02-02T11:27:42.870Z,0.80
2023-02-02T11:30:26.698Z,0.65
2023-02-02T11:32:59.925Z,1.45
2023-02-02T11:35:32.767Z,1.52
2023-02-02T11:38:16.939Z,0.93
2023-02-02T11:41:07.355Z,0.60
2023-02-02T11:43:45.186Z,0.88
2023-02-02T11:46:19.877Z,0.70
2023-02-02T11:49:01.524Z,1.10
2023-02-02T11:51:34.377Z,1.30
2023-02-02T11:54:15.339Z,1.20
2023-02-02T11:56:52.337Z,1.40
2023-02-02T11:59:30.583Z,1.13
2023-02-02T12:02:18.198Z,1.35
2023-02-02T12:04:52.774Z,1.05
2023-02-02T12:07:29.888Z,1.70
2023-02-02T12:10:11.830Z,1.50
2023-02-02T12:12:50.268Z,2.08
2023-02-02T12:15:41.878Z,1.42
2023-02-02T12:18:17.462Z,1.42
2023-02-02T12:21:15.854Z,1.17
2023-02-02T12:23:55.884Z,1.00
2023-02-02T12:26:31.041Z,1.25
2023-02-02T12:29:12.696Z,0.80
2023-02-02T12:31:51.380Z,1.00
2023-02-02T12:34:42.173Z,1.10
2023-02-02T12:37:27.388Z,0.90
2023-02-02T12:40:35.491Z,1.33
2023-02-02T12:43:17.181Z,1.30
2023-02-02T12:45:49.660Z,1.08
2023-02-02T12:48:22.707Z,0.90
2023-02-02T12:51:01.040Z,1.73
2023-02-02T12:54:32.913Z,1.10
2023-02-02T12:56:45.086Z,0.73
2023-02-02T12:59:36.527Z,1.45
2023-02-02T13:02:21.556Z,1.17
2023-02-02T13:07:55.729Z,0.75
2023-02-02T13:10:36.090Z,1.02
2023-02-02T13:13:11.612Z,1.45
2023-02-02T13:15:46.979Z,1.42
2023-02-02T13:18:21.064Z,1.17
2023-02-02T13:20:56.095Z,2.03
2023-02-02T13:23:33.139Z,1.83
2023-02-02T13:26:08.335Z,1.05
2023-02-02T13:28:43.738Z,1.13
2023-02-02T13:31:37.163Z,1.45
2023-02-02T13:34:16.199Z,1.63
2023-02-02T13:36:55.290Z,0.98
2023-02-02T13:39:33.085Z,1.90
2023-02-02T13:42:17.069Z,1.10
2023-02-02T13:44:53.345Z,1.25
2023-02-02T13:47:39.304Z,1.48
2023-02-02T13:50:14.678Z,1.48
2023-02-02T13:52:59.753Z,1.65
2023-02-02T13:55:38.208Z,1.73
2023-02-02T13:58:13.696Z,2.08
2023-02-02T14:00:48.632Z,1.20
2023-02-02T14:03:41.222Z,1.23
2023-02-02T14:06:14.280Z,1.00
2023-02-02T14:08:49.158Z,2.00
2023-02-02T14:11:24.671Z,1.77
2023-02-02T14:14:18.808Z,1.35
2023-02-02T14:16:52.204Z,1.55
2023-02-02T14:19:27.829Z,1.42
2023-02-02T14:22:06.229Z,1.83
2023-02-02T14:24:40.828Z,1.63
2023-02-02T14:27:13.315Z,1.77
2023-02-02T14:29:46.936Z,1.48
2023-02-02T14:32:28.883Z,1.67
2023-02-02T14:35:18.996Z,1.70
2023-02-02T14:38:04.536Z,1.42
2023-02-02T14:40:40.190Z,1.00
2023-02-02T14:43:39.443Z,1.35
2023-02-02T14:46:15.111Z,1.55
2023-02-02T14:48:48.732Z,1.80
2023-02-02T14:51:22.926Z,2.05
2023-02-02T14:53:58.691Z,1.70
2023-02-02T14:56:50.162Z,1.90
2023-02-02T14:59:25.138Z,2.08
2023-02-02T15:02:01.161Z,1.95
2023-02-02T15:04:33.759Z,7.38
2023-02-02T15:07:24.608Z,2.10
2023-02-02T15:09:57.275Z,3.42
2023-02-02T15:12:33.326Z,4.18
2023-02-02T15:15:32.329Z,1.98
2023-02-02T15:18:08.311Z,2.78
2023-02-02T15:20:46.266Z,2.22
2023-02-02T15:23:24.989Z,1.55
2023-02-02T15:26:09.709Z,1.15
2023-02-02T15:28:46.096Z,1.55
2023-02-02T15:31:27.704Z,1.88
2023-02-02T15:34:02.821Z,1.67
2023-02-02T15:36:37.868Z,2.55
2023-02-02T15:39:13.770Z,2.70
2023-02-02T15:41:46.893Z,2.72
2023-02-02T15:44:21.284Z,2.08
2023-02-02T15:46:54.630Z,1.70
2023-02-02T15:49:35.171Z,2.10
2023-02-02T15:52:28.814Z,2.03
2023-02-02T15:55:01.713Z,1.58
2023-02-02T15:57:37.495Z,2.05
2023-02-02T16:00:29.599Z,3.22
2023-02-02T16:03:11.396Z,1.95
2023-02-02T16:05:47.793Z,1.60
2023-02-02T16:08:24.709Z,4.05
2023-02-02T16:11:15.021Z,2.35
2023-02-02T16:14:04.615Z,3.00
2023-02-02T16:16:38.611Z,3.75
2023-02-02T16:19:20.298Z,2.28
2023-02-02T16:21:55.428Z,3.17
2023-02-02T16:24:33.181Z,2.80
2023-02-02T16:27:06.942Z,4.25
2023-02-02T16:29:40.494Z,1.90
2023-02-02T16:32:26.344Z,3.53
2023-02-02T16:34:59.390Z,2.38
2023-02-02T16:37:33.619Z,5.82
2023-02-02T16:40:24.534Z,5.43
2023-02-02T16:43:06.860Z,3.10
2023-02-02T16:45:47.175Z,13.55
2023-02-02T16:48:28.606Z,14.32
2023-02-02T16:51:06.845Z,2.50
2023-02-02T16:53:39.690Z,3.63
2023-02-02T16:56:21.751Z,1.88
2023-02-02T16:58:58.362Z,2.33
2023-02-02T17:01:41.067Z,1.70
2023-02-02T17:04:22.623Z,2.30
2023-02-02T17:06:57.102Z,1.52
2023-02-02T17:09:41.340Z,1.92
2023-02-02T17:12:33.270Z,2.35
2023-02-02T17:15:19.469Z,1.88
2023-02-02T17:17:52.656Z,2.35
2023-02-02T17:20:26.360Z,1.83
2023-02-02T17:23:07.234Z,2.75
2023-02-02T17:25:43.857Z,2.35
2023-02-02T17:28:17.847Z,2.30
2023-02-02T17:31:13.939Z,3.05
2023-02-02T17:33:46.429Z,2.50
2023-02-02T17:36:19.263Z,3.00
2023-02-02T17:38:51.734Z,3.15
2023-02-02T17:41:24.663Z,3.15
2023-02-02T17:43:57.069Z,3.53
2023-02-02T17:46:31.345Z,3.45
2023-02-02T17:49:04.005Z,2.92
2023-02-02T17:51:41.472Z,2.05
2023-02-02T17:54:14.808Z,2.58
2023-02-02T17:56:47.689Z,4.82
2023-02-02T17:59:20.191Z,3.20
2023-02-02T18:01:55.311Z,3.55
2023-02-02T18:04:27.904Z,2.63
2023-02-02T18:07:00.758Z,2.38
2023-02-02T18:09:34.568Z,2.20
2023-02-02T18:12:07.507Z,2.72
2023-02-02T18:14:40.032Z,6.03
2023-02-02T18:17:12.947Z,4.45
2023-02-02T18:19:47.074Z,10.07
2023-02-02T18:22:19.921Z,3.80
2023-02-02T18:24:52.370Z,2.20
2023-02-02T18:27:25.900Z,2.85
2023-02-02T18:29:58.485Z,2.15
2023-02-02T18:32:31.773Z,2.22
2023-02-02T18:35:05.361Z,2.33
2023-02-02T18:37:38.678Z,2.95
2023-02-02T18:40:11.568Z,1.95
2023-02-02T18:42:44.590Z,1.80
2023-02-02T18:45:17.166Z,2.83
2023-02-02T18:47:50.059Z,2.90
2023-02-02T18:50:22.526Z,2.63
2023-02-02T18:52:57.028Z,3.40
2023-02-02T18:55:29.659Z,2.70
2023-02-02T18:58:02.608Z,2.53
2023-02-02T19:00:35.089Z,2.67
2023-02-02T19:03:08.317Z,1.75
2023-02-02T19:05:59.602Z,1.45
2023-02-02T19:08:33.885Z,1.30
2023-02-02T19:11:12.110Z,1.48
2023-02-02T19:13:45.039Z,1.63
2023-02-02T19:16:24.507Z,2.10
2023-02-02T19:19:11.842Z,1.50
2023-02-02T19:21:44.360Z,2.05
2023-02-02T19:24:17.221Z,1.42
2023-02-02T19:26:50.422Z,1.42
2023-02-02T19:29:24.480Z,2.88
2023-02-02T19:31:59.997Z,2.70
2023-02-02T19:34:33.684Z,2.83
2023-02-02T19:37:21.458Z,3.28
2023-02-02T19:40:03.405Z,4.50
2023-02-02T19:42:36.340Z,3.15
2023-02-02T19:45:23.674Z,2.80
2023-02-02T19:48:02.248Z,3.65
2023-02-02T19:50:39.007Z,3.30
2023-02-02T19:53:30.312Z,31.90
2023-02-02T19:56:11.954Z,50.70
2023-02-02T19:58:46.184Z,10.73
2023-02-02T20:01:20.650Z,7.03
2023-02-02T20:03:53.528Z,10.52
2023-02-02T20:06:31.292Z,5.68
2023-02-02T20:09:11.501Z,5.70
2023-02-02T20:11:45.738Z,6.50
2023-02-02T20:14:18.809Z,13.02
2023-02-02T20:16:58.199Z,5.57
2023-02-02T20:19:37.146Z,5.43
2023-02-02T20:22:25.515Z,2.88
2023-02-02T20:24:58.380Z,3.20
2023-02-02T20:27:36.965Z,4.18
2023-02-02T20:30:18.549Z,3.70
2023-02-02T20:32:56.249Z,2.58
2023-02-02T20:35:38.047Z,2.38
2023-02-02T20:38:43.749Z,1.98
2023-02-02T20:41:18.999Z,2.00
2023-02-02T20:43:51.838Z,1.65
2023-02-02T20:46:24.294Z,2.58
2023-02-02T20:48:57.298Z,1.70
2023-02-02T20:51:33.325Z,2.25
2023-02-02T20:54:10.325Z,1.92
2023-02-02T20:56:42.756Z,1.88
2023-02-02T20:59:15.673Z,1.48
2023-02-02T21:01:50.278Z,1.52
2023-02-02T21:04:23.125Z,1.90
2023-02-02T21:06:55.779Z,1.88
2023-02-02T21:09:28.666Z,1.77
2023-02-02T21:12:01.102Z,1.55
2023-02-02T21:14:34.538Z,1.45
2023-02-02T21:17:14.823Z,2.50
2023-02-02T21:19:48.539Z,1.90
2023-02-02T21:22:21.028Z,1.30
2023-02-02T21:24:55.104Z,1.55
2023-02-02T21:27:27.573Z,2.42
2023-02-02T21:30:00.449Z,1.20
2023-02-02T21:32:33.614Z,1.60
2023-02-02T21:35:06.977Z,1.38
2023-02-02T21:37:40.809Z,1.98
2023-02-02T21:40:15.843Z,1.08
2023-02-02T21:42:49.381Z,1.52
2023-02-02T21:45:22.237Z,1.10
2023-02-02T21:47:55.805Z,1.08
2023-02-02T21:50:30.333Z,1.33
2023-02-02T21:53:14.964Z,1.38
2023-02-02T21:55:50.766Z,1.90
2023-02-02T21:58:23.331Z,2.30
2023-02-02T22:00:58.996Z,2.25
2023-02-02T22:03:37.270Z,2.13
2023-02-02T22:06:13.121Z,3.00
2023-02-02T22:08:45.667Z,1.75
2023-02-02T22:11:29.728Z,2.55
2023-02-02T22:14:22.387Z,1.52
2023-02-02T22:16:58.713Z,1.88
2023-02-02T22:19:33.337Z,1.80
2023-02-02T22:22:09.008Z,2.22
2023-02-02T22:24:41.707Z,2.35
2023-02-02T22:27:19.369Z,2.20
2023-02-02T22:30:18.177Z,1.85
2023-02-02T22:32:51.188Z,2.25
2023-02-02T22:35:23.673Z,2.13
2023-02-02T22:37:56.519Z,2.33
2023-02-02T22:40:29.332Z,2.30
2023-02-02T22:43:03.797Z,2.42
2023-02-02T22:45:36.345Z,3.15
2023-02-02T22:48:09.905Z,3.20
2023-02-02T22:50:42.405Z,3.03
2023-02-02T22:53:15.840Z,2.70
2023-02-02T22:55:48.379Z,3.50
2023-02-02T22:58:21.262Z,1.75
2023-02-02T23:00:53.840Z,3.30
2023-02-02T23:03:27.074Z,2.95
2023-02-02T23:05:59.576Z,3.13
2023-02-02T23:08:32.563Z,2.78
2023-02-02T23:11:04.993Z,1.80
2023-02-02T23:13:38.046Z,2.35
2023-02-02T23:16:11.166Z,2.40
2023-02-02T23:18:43.976Z,2.47
2023-02-02T23:21:17.258Z,2.80
2023-02-02T23:23:50.139Z,1.98
2023-02-02T23:26:23.199Z,2.35
2023-02-02T23:29:00.243Z,2.58
2023-02-02T23:31:32.888Z,2.80
2023-02-02T23:34:05.865Z,2.15
2023-02-02T23:36:38.322Z,2.47
2023-02-02T23:39:11.215Z,2.83
2023-02-02T23:41:43.769Z,3.15
2023-02-02T23:44:16.662Z,2.00
2023-02-02T23:46:49.752Z,3.55
2023-02-02T23:49:22.976Z,1.83
2023-02-02T23:51:55.434Z,2.90
2023-02-02T23:54:28.743Z,2.90
2023-02-02T23:57:01.712Z,3.78
2023-02-02T23:59:34.631Z,3.20
